< < Back
Terminal Aerodrome Forecast


Current Version              Previous Versions:   1  2  3  4  5  6  7  8  9  

Terminal Aerodrome Forecast

232
FTUS42 KCHS 011700
TAFSAV
TAF
KSAV 011737Z 0118/0218 03006KT P6SM VCTS SCT020CB BKN080
      TEMPO 0118/0122 2SM +TSRA BKN018CB
     FM012300 13006KT P6SM SCT020 BKN035
     FM020600 VRB03KT P6SM VCSH SCT012 BKN030
      TEMPO 0208/0212 4SM BR BKN012
     FM021500 06006KT P6SM SHRA VCTS SCT020 BKN035CB=

Latest METAR

789
SAUS80 KWBC 020800
MTRSAV
METAR KSAV 020753Z AUTO 01005KT 7SM OVC003 24/23 A2999 RMK AO2 SLP156
T02390228 TSNO $


USA.gov is the U.S. government's official web portal to all federal, state and local government web resources and services.